Time;durP1;ratioP1;P1;durP2;ratioP2;P2;SDS_P1;SDS_P2;PMS_P1;PMS_P2;Temp;Humidity;BMP_temperature;BMP_pressure;BME280_temperature;BME280_humidity;BME280_pressure;Samples;Min_cycle;Max_cycle;Signal;HPM_P1;HPM_P2
2021/03/09 00:02:27;;;;;;;19.98;11.68;;;;;;;0.90;92.48;100642.12;642100;221;32713;-76
2021/03/09 00:04:55;;;;;;;16.77;11.70;;;;;;;0.93;92.26;100641.97;640133;223;23777;-75
2021/03/09 00:07:23;;;;;;;15.90;11.38;;;;;;;1.23;91.47;100628.58;637947;223;32753;-76
2021/03/09 00:09:51;;;;;;;16.10;10.90;;;;;;;1.10;91.02;100620.20;641273;223;23761;-76
2021/03/09 00:12:19;;;;;;;17.50;9.67;;;;;;;0.79;91.96;100625.16;640825;221;24978;-76
2021/03/09 00:14:47;;;;;;;16.67;11.70;;;;;;;0.83;92.01;100631.78;635164;223;33437;-76
2021/03/09 00:17:14;;;;;;;23.80;12.27;;;;;;;0.70;92.10;100628.97;650156;221;23728;-76
2021/03/09 00:19:42;;;;;;;19.93;10.70;;;;;;;0.75;92.75;100633.44;636350;225;24867;-76
2021/03/09 00:22:10;;;;;;;16.70;11.22;;;;;;;0.67;92.48;100629.57;644639;221;32539;-76
2021/03/09 00:24:38;;;;;;;18.47;10.57;;;;;;;0.67;93.50;100636.80;635169;225;23756;-77
2021/03/09 00:27:09;;;;;;;17.37;11.80;;;;;;;0.72;93.24;100639.16;645395;220;32541;-76
2021/03/09 00:29:35;;;;;;;15.40;9.73;;;;;;;0.70;93.61;100634.53;635274;225;23816;-76
2021/03/09 00:32:04;;;;;;;18.42;11.78;;;;;;;0.91;92.64;100631.42;640027;221;32613;-76
2021/03/09 00:34:31;;;;;;;18.97;10.90;;;;;;;0.93;93.18;100629.16;635348;226;23808;-76
2021/03/09 00:36:59;;;;;;;17.53;10.10;;;;;;;1.01;92.32;100626.25;643884;220;24922;-76
2021/03/09 00:39:27;;;;;;;15.97;10.13;;;;;;;1.07;92.02;100620.36;647550;221;24891;-75
2021/03/09 00:41:55;;;;;;;21.13;10.17;;;;;;;1.15;92.62;100626.41;644391;221;24983;-76
2021/03/09 00:44:23;;;;;;;16.10;11.05;;;;;;;1.35;91.50;100622.85;623620;226;43646;-76
2021/03/09 00:46:51;;;;;;;16.50;10.67;;;;;;;1.35;91.13;100618.55;643066;221;23742;-76
2021/03/09 00:49:19;;;;;;;17.07;9.10;;;;;;;1.32;91.20;100618.71;639255;221;33307;-76
2021/03/09 00:51:47;;;;;;;17.97;9.20;;;;;;;1.24;91.98;100614.41;645560;221;25181;-76
2021/03/09 00:54:14;;;;;;;15.48;10.88;;;;;;;1.35;91.06;100619.01;633473;222;32812;-77
2021/03/09 00:56:42;;;;;;;14.07;9.27;;;;;;;1.26;91.12;100618.17;638947;223;24898;-77
2021/03/09 00:59:10;;;;;;;17.32;11.40;;;;;;;1.33;91.36;100610.13;631910;223;32691;-76
2021/03/09 01:01:38;;;;;;;20.33;11.00;;;;;;;1.35;91.22;100610.04;649724;219;23714;-76
2021/03/09 01:04:06;;;;;;;18.73;11.38;;;;;;;1.44;91.34;100608.30;627980;225;32934;-76
2021/03/09 01:06:34;;;;;;;19.03;10.40;;;;;;;1.30;91.81;100603.05;638027;225;23751;-76
2021/03/09 01:09:02;;;;;;;13.77;9.10;;;;;;;1.25;92.00;100609.66;638290;225;24908;-76
2021/03/09 01:11:30;;;;;;;16.80;11.70;;;;;;;1.33;92.06;100605.00;632931;225;32704;-76
2021/03/09 01:13:58;;;;;;;15.73;10.00;;;;;;;1.22;91.75;100600.85;637606;224;23740;-76
2021/03/09 01:16:26;;;;;;;22.22;12.90;;;;;;;1.33;92.27;100606.73;637221;220;32751;-76
2021/03/09 01:18:54;;;;;;;27.00;11.47;;;;;;;1.17;92.75;100606.22;641732;221;23752;-76
2021/03/09 01:21:21;;;;;;;18.32;12.00;;;;;;;1.22;92.29;100597.46;630934;225;32883;-76
2021/03/09 01:23:49;;;;;;;18.17;10.80;;;;;;;1.09;93.07;100601.91;630821;225;23801;-76
2021/03/09 01:26:17;;;;;;;18.10;12.35;;;;;;;1.15;93.17;100595.67;642401;221;32468;-77
2021/03/09 01:28:45;;;;;;;19.70;10.70;;;;;;;1.04;93.78;100600.03;638189;225;23751;-77
2021/03/09 01:31:13;;;;;;;20.55;13.40;;;;;;;1.18;92.83;100599.36;641815;221;32753;-76
2021/03/09 01:33:41;;;;;;;18.43;10.90;;;;;;;1.03;93.62;100593.26;643947;221;23706;-76
2021/03/09 01:36:09;;;;;;;21.35;12.85;;;;;;;1.12;93.34;100603.48;639932;221;32755;-76
2021/03/09 01:38:37;;;;;;;15.80;10.47;;;;;;;1.14;93.42;100592.73;638458;225;28193;-76
2021/03/09 01:41:05;;;;;;;20.53;9.90;;;;;;;1.02;93.55;100585.20;650072;221;24903;-76
2021/03/09 01:43:33;;;;;;;20.75;12.80;;;;;;;1.06;93.54;100590.54;632451;225;32705;-76
2021/03/09 01:46:01;;;;;;;21.30;12.30;;;;;;;1.02;93.95;100582.64;638876;225;23751;-76
2021/03/09 01:48:29;;;;;;;17.70;10.67;;;;;;;1.03;94.20;100583.47;634695;225;24895;-75
2021/03/09 01:50:57;;;;;;;20.50;13.20;;;;;;;1.19;94.04;100580.52;644046;220;32472;-77
2021/03/09 01:53:25;;;;;;;21.70;11.57;;;;;;;1.21;93.48;100567.63;646035;220;24944;-75
2021/03/09 01:55:53;;;;;;;18.40;11.10;;;;;;;1.19;93.40;100571.09;634976;225;25261;-76
2021/03/09 01:58:21;;;;;;;18.93;10.73;;;;;;;1.19;93.24;100565.16;637054;225;24889;-76
2021/03/09 02:00:48;;;;;;;16.90;10.23;;;;;;;1.22;93.07;100566.73;636769;225;27091;-76
2021/03/09 02:03:16;;;;;;;20.33;11.40;;;;;;;1.16;92.60;100564.86;631749;225;24906;-76
2021/03/09 02:05:44;;;;;;;17.00;11.10;;;;;;;1.18;93.68;100566.06;636212;225;25037;-77
2021/03/09 02:08:12;;;;;;;19.77;10.53;;;;;;;1.22;93.23;100565.44;635149;225;24892;-76
2021/03/09 02:10:40;;;;;;;23.23;12.00;;;;;;;1.16;93.41;100555.89;650549;219;24859;-76
2021/03/09 02:13:12;;;;;;;17.77;10.27;;;;;;;1.15;93.45;100555.97;637080;224;24885;-76
2021/03/09 02:15:41;;;;;;;20.27;10.40;;;;;;;1.19;93.45;100559.58;648519;220;24984;-76
2021/03/09 02:18:12;;;;;;;20.67;11.67;;;;;;;1.24;93.17;100556.77;635449;225;24969;-76
2021/03/09 02:20:52;;;;;;;19.80;10.77;;;;;;;1.36;92.84;100546.36;641704;222;25885;-76
2021/03/09 02:23:53;;;;;;;15.67;10.37;;;;;;;1.35;92.42;100541.69;638074;224;24957;-76
2021/03/09 02:26:30;;;;;;;19.90;11.83;;;;;;;1.36;92.78;100543.80;640374;222;24866;-76
2021/03/09 02:29:01;;;;;;;19.43;11.03;;;;;;;1.19;92.82;100539.08;650195;221;27060;-76
2021/03/09 02:31:29;;;;;;;22.40;11.63;;;;;;;1.07;93.05;100536.31;635900;226;27139;-76
2021/03/09 02:33:57;;;;;;;19.50;11.90;;;;;;;0.89;93.15;100535.05;639227;220;24890;-75
2021/03/09 02:36:25;;;;;;;21.80;11.73;;;;;;;0.83;94.06;100534.50;642151;221;28064;-75
2021/03/09 02:38:53;;;;;;;21.80;11.70;;;;;;;0.93;94.03;100533.61;642828;221;27049;-75
2021/03/09 02:41:21;;;;;;;19.60;12.27;;;;;;;0.84;94.13;100526.74;632929;225;24946;-75
2021/03/09 02:43:49;;;;;;;23.07;14.28;;;;;;;0.99;94.30;100530.30;640493;220;32561;-75
2021/03/09 02:46:17;;;;;;;23.17;14.40;;;;;;;0.80;94.29;100531.65;634668;225;23785;-74
2021/03/09 02:48:45;;;;;;;26.03;13.03;;;;;;;0.77;94.59;100525.41;633181;225;24886;-75
2021/03/09 02:51:13;;;;;;;20.10;11.80;;;;;;;0.69;94.99;100527.95;637050;225;24892;-74
2021/03/09 02:53:44;;;;;;;22.27;11.30;;;;;;;0.66;95.18;100530.66;647029;221;24889;-74
2021/03/09 02:56:12;;;;;;;23.52;15.40;;;;;;;0.91;94.55;100526.00;641909;220;32789;-75
2021/03/09 02:58:40;;;;;;;23.07;13.80;;;;;;;0.76;95.01;100530.60;637021;224;25926;-75
2021/03/09 03:01:08;;;;;;;26.57;14.03;;;;;;;0.68;94.98;100524.56;644977;221;27993;-75
2021/03/09 03:03:36;;;;;;;20.77;12.23;;;;;;;0.67;95.08;100522.91;646417;221;24796;-75
2021/03/09 03:06:04;;;;;;;21.07;12.50;;;;;;;0.48;96.01;100530.66;636397;225;24858;-75
2021/03/09 03:08:32;;;;;;;24.97;12.93;;;;;;;0.49;96.27;100528.47;640255;221;24871;-76
2021/03/09 03:11:00;;;;;;;23.90;12.17;;;;;;;0.62;96.32;100531.72;634686;225;24857;-74
2021/03/09 03:13:28;;;;;;;24.23;12.53;;;;;;;0.53;96.50;100527.41;648170;221;25865;-74
2021/03/09 03:15:56;;;;;;;25.70;16.15;;;;;;;0.70;96.01;100524.48;632431;225;32894;-75
2021/03/09 03:18:24;;;;;;;22.87;13.90;;;;;;;0.55;96.39;100525.61;625724;226;26931;-75
2021/03/09 03:20:52;;;;;;;25.35;16.00;;;;;;;0.79;95.22;100526.61;630775;224;32613;-75
2021/03/09 03:23:20;;;;;;;25.00;15.70;;;;;;;0.77;95.04;100524.13;650059;220;23708;-74
2021/03/09 03:25:48;;;;;;;25.23;13.30;;;;;;;0.72;95.31;100522.70;641291;223;24889;-75
2021/03/09 03:28:16;;;;;;;28.65;17.20;;;;;;;0.83;95.05;100524.27;637550;220;32489;-74
2021/03/09 03:30:44;;;;;;;26.00;15.00;;;;;;;0.74;95.76;100519.61;649674;220;23722;-75
2021/03/09 03:33:12;;;;;;;30.10;18.00;;;;;;;0.84;95.28;100520.80;645034;219;32485;-75
2021/03/09 03:35:40;;;;;;;26.10;15.77;;;;;;;0.68;95.37;100525.02;638485;225;23786;-74
2021/03/09 03:38:07;;;;;;;28.55;17.75;;;;;;;0.78;95.43;100522.39;627530;225;32613;-75
2021/03/09 03:40:35;;;;;;;26.20;15.40;;;;;;;0.72;95.63;100522.25;637290;225;25137;-74
2021/03/09 03:43:03;;;;;;;29.63;17.98;;;;;;;0.78;95.53;100516.82;641760;221;32569;-75
2021/03/09 03:45:31;;;;;;;31.00;18.67;;;;;;;0.84;95.24;100521.63;629789;225;32660;-75
2021/03/09 03:47:59;;;;;;;26.27;15.53;;;;;;;0.71;94.69;100523.61;637453;225;23741;-75
2021/03/09 03:50:28;;;;;;;28.57;17.25;;;;;;;0.93;94.68;100520.35;630083;225;32768;-75
2021/03/09 03:52:58;;;;;;;28.65;18.10;;;;;;;0.98;94.96;100524.78;641625;221;32461;-75
2021/03/09 03:55:34;;;;;;;36.50;17.30;;;;;;;0.75;95.47;100518.71;634440;225;23779;-74
2021/03/09 03:58:04;;;;;;;30.70;18.60;;;;;;;0.90;94.73;100520.52;631905;225;32948;-75
2021/03/09 04:00:32;;;;;;;27.87;16.60;;;;;;;0.75;95.69;100521.27;633063;225;23817;-75
2021/03/09 04:03:00;;;;;;;30.30;17.45;;;;;;;1.11;94.59;100523.72;645278;220;32492;-74
2021/03/09 04:05:29;;;;;;;32.00;19.48;;;;;;;1.28;93.86;100512.64;644640;220;32499;-75
2021/03/09 04:07:56;;;;;;;29.15;19.57;;;;;;;1.34;92.88;100509.75;631020;225;32698;-75
2021/03/09 04:10:24;;;;;;;29.53;17.57;;;;;;;0.99;93.83;100512.38;635532;225;23757;-74
2021/03/09 04:12:52;;;;;;;32.63;19.30;;;;;;;1.26;93.37;100502.89;629404;225;33151;-74
2021/03/09 04:15:20;;;;;;;29.77;19.00;;;;;;;1.33;92.76;100500.41;628253;225;32978;-75
2021/03/09 04:17:48;;;;;;;31.43;16.73;;;;;;;1.01;93.36;100509.29;634445;225;23780;-75
2021/03/09 04:20:16;;;;;;;30.68;18.87;;;;;;;1.35;92.77;100501.98;640619;221;32508;-75
2021/03/09 04:22:44;;;;;;;27.47;16.40;;;;;;;1.01;93.45;100502.06;637133;225;24775;-75
2021/03/09 04:25:13;;;;;;;25.70;15.17;;;;;;;0.83;93.92;100505.06;632738;225;24930;-74
2021/03/09 04:27:41;;;;;;;29.75;18.67;;;;;;;1.22;93.07;100496.28;642679;220;32438;-75
2021/03/09 04:30:12;;;;;;;32.28;19.15;;;;;;;1.36;91.37;100491.27;642751;220;32452;-75
2021/03/09 04:32:38;;;;;;;27.77;17.30;;;;;;;0.87;92.90;100500.19;636333;225;25914;-75
2021/03/09 04:35:08;;;;;;;34.53;19.60;;;;;;;1.13;93.30;100500.16;633965;221;32638;-74
2021/03/09 04:37:36;;;;;;;31.12;20.23;;;;;;;1.25;92.13;100495.66;627625;225;32784;-74
2021/03/09 04:40:06;;;;;;;33.60;17.63;;;;;;;0.73;94.36;100507.72;638477;225;23797;-74
2021/03/09 04:42:33;;;;;;;33.30;15.83;;;;;;;0.84;94.84;100510.10;637859;225;24884;-75
2021/03/09 04:45:01;;;;;;;33.90;17.40;;;;;;;0.77;94.92;100510.50;643790;221;24895;-74
2021/03/09 04:47:29;;;;;;;30.15;19.40;;;;;;;1.13;95.02;100507.84;632139;220;33000;-75
2021/03/09 04:49:57;;;;;;;31.00;17.37;;;;;;;0.89;94.86;100499.66;643864;221;23758;-75
2021/03/09 04:52:25;;;;;;;30.93;16.03;;;;;;;0.95;94.59;100505.73;635392;225;25029;-75
2021/03/09 04:54:53;;;;;;;32.50;19.70;;;;;;;1.05;94.78;100510.78;645993;220;32724;-75
2021/03/09 04:57:22;;;;;;;30.90;19.75;;;;;;;1.22;94.20;100502.69;631389;224;32675;-75
2021/03/09 04:59:50;;;;;;;28.50;17.13;;;;;;;0.92;94.57;100504.62;647214;220;23780;-75
2021/03/09 05:02:18;;;;;;;29.07;16.10;;;;;;;0.82;95.56;100509.81;647562;220;24823;-75
2021/03/09 05:04:46;;;;;;;31.48;20.10;;;;;;;1.07;94.10;100510.24;631750;224;32630;-75
2021/03/09 05:07:13;;;;;;;33.83;18.10;;;;;;;0.81;94.73;100508.98;642912;221;23796;-75
2021/03/09 05:09:41;;;;;;;23.60;14.90;;;;;;;0.73;95.79;100512.39;633580;225;24924;-76
2021/03/09 05:12:10;;;;;;;31.48;18.80;;;;;;;1.36;93.43;100501.06;631126;223;32775;-75
2021/03/09 05:14:38;;;;;;;32.28;20.05;;;;;;;1.38;92.34;100497.14;638279;221;32923;-75
2021/03/09 05:17:05;;;;;;;32.37;17.20;;;;;;;1.09;93.05;100498.19;628999;225;23804;-75
2021/03/09 05:19:33;;;;;;;25.60;15.37;;;;;;;0.93;94.23;100504.99;644201;221;28082;-74
2021/03/09 05:22:01;;;;;;;32.10;19.62;;;;;;;1.20;93.23;100504.05;642495;220;32423;-75
2021/03/09 05:24:29;;;;;;;30.80;18.80;;;;;;;0.98;93.92;100510.70;649820;220;23753;-75
2021/03/09 05:26:57;;;;;;;31.33;17.57;;;;;;;0.85;94.22;100510.51;649160;220;24829;-75
2021/03/09 05:29:25;;;;;;;33.05;20.40;;;;;;;1.05;94.07;100509.50;643605;220;32556;-75
2021/03/09 05:31:53;;;;;;;31.23;17.77;;;;;;;0.80;94.96;100507.78;634195;221;23790;-75
2021/03/09 05:34:21;;;;;;;35.23;20.70;;;;;;;0.93;94.87;100504.99;631183;225;32632;-75
2021/03/09 05:36:50;;;;;;;31.77;18.50;;;;;;;0.74;95.69;100502.52;636423;224;23775;-75
2021/03/09 05:39:18;;;;;;;35.85;21.37;;;;;;;1.07;94.60;100505.13;636599;221;32633;-75
2021/03/09 05:41:46;;;;;;;36.50;21.90;;;;;;;1.08;94.83;100502.94;629709;225;43355;-74
2021/03/09 05:44:15;;;;;;;32.27;19.13;;;;;;;0.86;94.89;100509.60;638398;220;24899;-75
2021/03/09 05:46:43;;;;;;;33.47;17.40;;;;;;;0.78;95.79;100515.54;645795;220;26962;-75
2021/03/09 05:49:11;;;;;;;37.00;22.27;;;;;;;0.89;95.97;100512.45;644198;220;32476;-75
2021/03/09 05:51:39;;;;;;;29.47;17.50;;;;;;;0.78;95.90;100516.82;648784;220;23760;-75
2021/03/09 05:54:07;;;;;;;36.93;21.73;;;;;;;0.95;95.79;100517.26;631463;224;32704;-75
2021/03/09 05:56:35;;;;;;;33.60;17.77;;;;;;;0.96;95.89;100525.31;636004;223;23858;-75
2021/03/09 05:59:03;;;;;;;35.98;22.50;;;;;;;1.14;95.41;100519.29;631643;225;32703;-75
2021/03/09 06:01:32;;;;;;;32.60;18.10;;;;;;;0.99;95.42;100527.75;635740;225;23792;-75
2021/03/09 06:04:00;;;;;;;35.55;22.02;;;;;;;1.17;95.41;100520.41;629736;225;32725;-74
2021/03/09 06:06:28;;;;;;;29.33;19.10;;;;;;;1.08;95.37;100525.16;647848;221;23743;-74
2021/03/09 06:08:56;;;;;;;32.13;17.00;;;;;;;0.95;95.46;100524.94;634008;225;24904;-75
2021/03/09 06:11:24;;;;;;;33.83;22.30;;;;;;;1.12;95.91;100521.07;629565;225;32703;-74
2021/03/09 06:13:54;;;;;;;39.00;19.73;;;;;;;1.07;96.08;100527.34;636874;225;23783;-75
2021/03/09 06:16:20;;;;;;;37.00;17.93;;;;;;;1.11;95.78;100530.12;634254;225;24929;-75
2021/03/09 06:18:53;;;;;;;38.38;22.27;;;;;;;1.17;95.35;100519.13;641559;221;32490;-74
2021/03/09 06:21:21;;;;;;;32.20;19.17;;;;;;;1.10;95.76;100526.73;637132;225;23855;-74
2021/03/09 06:23:49;;;;;;;36.03;20.95;;;;;;;1.27;95.61;100527.60;638138;221;32474;-74
2021/03/09 06:26:28;;;;;;;30.60;19.73;;;;;;;1.16;95.39;100522.59;645629;221;23740;-75
2021/03/09 06:29:08;;;;;;;31.10;17.73;;;;;;;1.24;95.73;100518.80;636132;223;24888;-75
2021/03/09 06:31:36;;;;;;;34.00;21.68;;;;;;;1.47;94.67;100518.45;640153;221;32596;-75
2021/03/09 06:34:30;;;;;;;31.97;19.30;;;;;;;1.43;94.67;100513.12;648229;221;23707;-75
2021/03/09 06:37:07;;;;;;;37.10;19.93;;;;;;;1.46;94.59;100515.52;635781;223;24848;-75
2021/03/09 06:39:44;;;;;;;38.37;19.20;;;;;;;1.53;94.29;100513.00;648207;221;28016;-75
2021/03/09 06:42:12;;;;;;;31.00;17.20;;;;;;;1.57;94.06;100505.55;636440;223;24856;-75
2021/03/09 06:44:40;;;;;;;36.73;18.60;;;;;;;1.54;94.10;100515.94;649319;221;24817;-74
2021/03/09 06:47:08;;;;;;;29.43;15.87;;;;;;;1.56;94.04;100514.59;637888;222;24885;-74
2021/03/09 06:49:51;;;;;;;30.13;17.43;;;;;;;1.50;94.08;100508.04;649340;221;24870;-75
2021/03/09 06:52:20;;;;;;;31.37;18.53;;;;;;;1.60;94.13;100523.31;632945;225;24884;-74
2021/03/09 06:54:48;;;;;;;32.50;18.67;;;;;;;1.62;94.04;100524.52;646998;221;24862;-74
2021/03/09 06:57:16;;;;;;;34.78;21.12;;;;;;;1.92;93.58;100524.63;642943;220;32416;-75
2021/03/09 06:59:44;;;;;;;33.97;18.27;;;;;;;1.79;93.11;100525.27;638691;224;23740;-74
2021/03/09 07:02:12;;;;;;;31.20;17.93;;;;;;;1.75;93.02;100532.77;645587;221;24812;-74
2021/03/09 07:04:40;;;;;;;30.83;18.00;;;;;;;1.84;92.57;100530.63;636453;224;24878;-74
2021/03/09 07:07:08;;;;;;;32.50;17.73;;;;;;;1.74;92.58;100540.08;637792;225;24843;-74
2021/03/09 07:09:36;;;;;;;36.77;19.13;;;;;;;1.67;93.13;100533.61;649307;220;24823;-74
2021/03/09 07:12:04;;;;;;;34.47;18.03;;;;;;;1.73;93.29;100542.27;635429;225;24919;-74
2021/03/09 07:14:32;;;;;;;34.80;17.40;;;;;;;1.79;93.28;100544.50;644758;221;24871;-74
2021/03/09 07:17:02;;;;;;;31.23;17.30;;;;;;;1.91;92.88;100539.64;649437;221;24820;-75
2021/03/09 07:19:34;;;;;;;31.97;17.00;;;;;;;1.91;92.79;100535.33;637688;224;24899;-74
2021/03/09 07:22:03;;;;;;;33.50;18.67;;;;;;;2.02;92.79;100538.61;635379;225;24889;-76
2021/03/09 07:24:31;;;;;;;31.67;20.90;;;;;;;2.22;91.81;100542.65;632254;225;32655;-74
2021/03/09 07:27:00;;;;;;;36.70;19.60;;;;;;;2.19;92.03;100549.23;637944;222;24850;-74
2021/03/09 07:29:28;;;;;;;25.60;16.90;;;;;;;2.21;91.53;100544.39;647611;221;24836;-77
2021/03/09 07:31:57;;;;;;;31.00;16.57;;;;;;;2.21;91.45;100544.39;648019;219;24871;-78
2021/03/09 07:34:25;;;;;;;31.02;20.40;;;;;;;2.40;90.99;100552.38;640714;220;43269;-77
2021/03/09 07:36:53;;;;;;;32.63;19.90;;;;;;;2.29;91.25;100547.38;632447;225;29236;-78
2021/03/09 07:39:21;;;;;;;29.70;17.70;;;;;;;2.54;91.27;100552.45;639570;220;24903;-77
2021/03/09 07:41:49;;;;;;;32.83;19.07;;;;;;;2.63;91.28;100547.60;633155;225;26073;-77
2021/03/09 07:44:17;;;;;;;30.80;18.83;;;;;;;2.57;90.91;100545.84;647030;221;24820;-77
2021/03/09 07:46:45;;;;;;;32.13;18.00;;;;;;;2.56;91.31;100546.77;645479;221;24891;-77
2021/03/09 07:49:13;;;;;;;31.97;17.20;;;;;;;2.71;90.60;100543.33;646107;221;24845;-79
2021/03/09 07:52:08;;;;;;;30.00;18.97;;;;;;;2.90;90.32;100545.20;638109;221;24896;-79
2021/03/09 07:54:35;;;;;;;33.40;19.33;;;;;;;3.04;90.93;100545.70;636251;225;24925;-78
2021/03/09 07:57:14;;;;;;;34.83;19.13;;;;;;;3.19;89.90;100548.66;641208;221;24862;-78
2021/03/09 07:59:54;;;;;;;33.27;20.30;;;;;;;3.14;89.58;100541.69;644553;221;24893;-80
2021/03/09 08:02:43;;;;;;;37.67;23.83;;;;;;;3.29;89.32;100537.39;639986;221;32536;-78
2021/03/09 08:05:13;;;;;;;31.93;19.60;;;;;;;3.26;89.32;100542.72;637880;225;23819;-78
2021/03/09 08:07:47;;;;;;;34.57;19.70;;;;;;;3.33;88.65;100535.45;648085;221;24839;-77
2021/03/09 08:10:37;;;;;;;35.43;19.83;;;;;;;3.44;88.99;100539.50;634245;224;25235;-77
2021/03/09 08:13:15;;;;;;;32.90;21.85;;;;;;;3.50;88.21;100536.09;632161;225;32689;-76
2021/03/09 08:15:44;;;;;;;29.60;19.30;;;;;;;3.33;88.87;100543.16;635752;225;23750;-79
2021/03/09 08:18:36;;;;;;;30.00;18.40;;;;;;;3.34;89.01;100549.95;638250;223;24839;-77
2021/03/09 08:21:04;;;;;;;25.37;16.83;;;;;;;3.55;89.04;100553.84;647879;220;24985;-79
2021/03/09 08:23:52;;;;;;;28.37;16.77;;;;;;;3.57;88.25;100541.71;648630;221;24829;-79
2021/03/09 08:26:45;;;;;;;25.37;16.50;;;;;;;3.66;87.63;100544.16;649131;220;24797;-77
2021/03/09 08:29:24;;;;;;;24.10;15.70;;;;;;;3.68;87.29;100544.47;640606;221;25849;-77
2021/03/09 08:31:52;;;;;;;27.07;15.77;;;;;;;3.56;86.56;100541.34;648422;221;24813;-78
2021/03/09 08:34:22;;;;;;;23.53;15.80;;;;;;;3.43;87.49;100532.25;632928;225;24831;-77
2021/03/09 08:36:51;;;;;;;29.83;17.60;;;;;;;3.55;87.03;100541.80;646420;221;24990;-80
2021/03/09 08:39:18;;;;;;;25.40;16.10;;;;;;;3.62;86.49;100541.42;648877;221;24827;-77
2021/03/09 08:42:05;;;;;;;26.03;15.50;;;;;;;3.49;87.12;100532.33;636900;225;24981;-77
2021/03/09 08:44:33;;;;;;;28.23;15.70;;;;;;;3.74;87.27;100541.97;628660;226;24966;-76
2021/03/09 08:47:02;;;;;;;22.20;15.37;;;;;;;3.80;86.35;100537.72;640505;221;24874;-77
2021/03/09 08:49:40;;;;;;;26.20;16.27;;;;;;;4.02;86.97;100541.92;649193;217;24816;-77
2021/03/09 08:52:08;;;;;;;28.97;16.90;;;;;;;3.83;85.79;100528.55;649534;220;25081;-76
2021/03/09 08:54:37;;;;;;;25.40;17.10;;;;;;;4.08;86.53;100540.70;649186;220;24800;-78
2021/03/09 08:57:08;;;;;;;28.03;15.90;;;;;;;4.26;86.19;100539.58;635692;225;24861;-77
2021/03/09 08:59:35;;;;;;;21.80;14.80;;;;;;;4.31;84.76;100533.66;647441;221;24800;-77
2021/03/09 09:02:07;;;;;;;21.87;14.63;;;;;;;4.54;84.54;100527.05;637919;225;24900;-78
2021/03/09 09:04:35;;;;;;;37.03;15.60;;;;;;;4.72;84.54;100525.86;643825;221;24891;-78
2021/03/09 09:07:26;;;;;;;28.57;15.50;;;;;;;4.73;84.21;100531.37;648375;221;24909;-78
2021/03/09 09:09:54;;;;;;;29.40;15.37;;;;;;;4.72;83.58;100527.61;643496;221;24946;-77
2021/03/09 09:12:24;;;;;;;23.90;15.80;;;;;;;4.82;82.22;100523.52;632019;225;24902;-77
2021/03/09 09:15:00;;;;;;;23.53;14.97;;;;;;;4.84;82.31;100521.66;636391;225;24881;-77
2021/03/09 09:17:29;;;;;;;20.40;14.90;;;;;;;4.94;81.85;100524.00;636548;225;26391;-77
2021/03/09 09:19:57;;;;;;;25.15;16.60;;;;;;;5.10;81.86;100522.52;642356;219;43241;-77
2021/03/09 09:22:26;;;;;;;23.67;15.50;;;;;;;5.19;81.13;100526.20;639977;221;23722;-77
2021/03/09 09:24:56;;;;;;;22.43;14.93;;;;;;;5.30;80.39;100515.53;648538;220;25079;-77
2021/03/09 09:27:24;;;;;;;23.63;15.23;;;;;;;5.49;80.63;100515.56;634794;225;24945;-77
2021/03/09 09:29:54;;;;;;;23.57;14.70;;;;;;;5.69;79.75;100511.16;633905;225;24958;-79
2021/03/09 09:32:22;;;;;;;19.57;13.77;;;;;;;5.46;78.90;100502.41;648223;221;24814;-77
2021/03/09 09:34:57;;;;;;;18.93;13.50;;;;;;;5.45;80.21;100507.69;637863;224;24902;-77
2021/03/09 09:37:25;;;;;;;19.20;13.40;;;;;;;5.66;79.32;100510.91;633090;225;24940;-77
2021/03/09 09:39:52;;;;;;;20.97;14.37;;;;;;;5.82;78.27;100500.34;647402;221;24926;-80
2021/03/09 09:42:20;;;;;;;21.97;14.67;;;;;;;5.78;77.89;100497.63;636890;224;24877;-78
2021/03/09 09:44:49;;;;;;;22.40;13.97;;;;;;;5.91;78.42;100498.45;642338;220;24873;-77
2021/03/09 09:47:18;;;;;;;22.00;15.33;;;;;;;5.80;77.97;100494.47;650444;221;24951;-79
2021/03/09 09:49:46;;;;;;;24.37;15.00;;;;;;;6.03;78.26;100498.48;646795;221;24892;-77
2021/03/09 09:52:15;;;;;;;21.73;13.97;;;;;;;5.85;76.81;100494.96;631710;225;25051;-78
2021/03/09 09:54:53;;;;;;;22.40;14.63;;;;;;;5.99;76.96;100489.33;647104;221;24832;-77
2021/03/09 09:57:23;;;;;;;20.13;14.00;;;;;;;6.23;77.00;100490.98;646220;221;24832;-76
2021/03/09 09:59:51;;;;;;;21.57;14.13;;;;;;;6.14;76.77;100490.81;633383;225;24926;-79
2021/03/09 10:02:20;;;;;;;21.67;14.33;;;;;;;6.20;75.21;100489.09;636117;225;24866;-77
2021/03/09 10:04:50;;;;;;;22.97;14.30;;;;;;;6.32;75.54;100492.06;633105;220;27036;-77
2021/03/09 10:07:20;;;;;;;19.63;13.80;;;;;;;6.28;75.77;100485.47;634446;224;24894;-78
2021/03/09 10:10:00;;;;;;;22.03;14.80;;;;;;;6.40;76.35;100491.52;649103;221;24832;-77
2021/03/09 10:12:35;;;;;;;21.77;12.67;;;;;;;6.52;75.33;100489.34;637271;224;24809;-77
2021/03/09 10:15:03;;;;;;;22.15;15.35;;;;;;;6.82;74.58;100490.12;631181;225;32777;-77
2021/03/09 10:17:32;;;;;;;18.80;14.30;;;;;;;6.80;73.43;100487.66;637518;225;24869;-77
2021/03/09 10:20:00;;;;;;;17.97;12.83;;;;;;;6.84;72.81;100485.66;644998;220;24864;-77
2021/03/09 10:22:29;;;;;;;22.60;13.53;;;;;;;7.06;73.60;100484.41;637734;224;24919;-78
2021/03/09 10:25:09;;;;;;;17.20;13.13;;;;;;;7.01;71.76;100474.05;647078;220;25272;-78
2021/03/09 10:27:37;;;;;;;24.83;13.10;;;;;;;6.94;72.13;100477.58;636783;224;24929;-77
2021/03/09 10:30:06;;;;;;;22.20;13.63;;;;;;;6.69;71.51;100471.29;645395;221;24849;-77
2021/03/09 10:32:36;;;;;;;19.13;13.40;;;;;;;6.85;72.92;100475.20;646570;219;25095;-77
2021/03/09 10:35:07;;;;;;;20.93;14.33;;;;;;;7.10;72.17;100475.94;635125;224;24912;-77
2021/03/09 10:37:35;;;;;;;21.60;14.30;;;;;;;7.21;71.83;100471.25;646463;221;25318;-79
2021/03/09 10:40:03;;;;;;;19.63;12.97;;;;;;;7.29;71.86;100471.48;635898;225;24884;-79
2021/03/09 10:42:33;;;;;;;20.00;13.70;;;;;;;7.15;71.31;100465.59;634105;225;24929;-78
2021/03/09 10:45:00;;;;;;;16.20;11.47;;;;;;;7.09;71.19;100463.48;636847;225;24889;-77
2021/03/09 10:47:28;;;;;;;20.45;14.20;;;;;;;7.36;70.94;100464.44;628713;222;32944;-78
2021/03/09 10:49:56;;;;;;;19.30;13.47;;;;;;;7.44;70.76;100462.53;647978;220;23797;-78
2021/03/09 10:52:24;;;;;;;20.50;14.27;;;;;;;7.74;69.19;100460.16;642085;221;32764;-77
2021/03/09 10:54:52;;;;;;;22.33;13.97;;;;;;;8.05;69.80;100457.72;648373;220;24894;-77
2021/03/09 10:57:20;;;;;;;17.43;13.33;;;;;;;8.19;68.42;100443.66;632119;225;24908;-77
2021/03/09 10:59:49;;;;;;;22.47;14.27;;;;;;;8.50;69.35;100451.08;638888;220;24887;-77
2021/03/09 11:02:16;;;;;;;17.43;12.83;;;;;;;8.42;66.60;100439.20;639431;221;24850;-77
2021/03/09 11:04:45;;;;;;;20.67;12.23;;;;;;;8.18;67.43;100435.06;644636;221;24910;-78
2021/03/09 11:07:13;;;;;;;18.03;12.73;;;;;;;8.15;67.78;100435.29;649777;220;24860;-77
2021/03/09 11:09:42;;;;;;;19.07;12.20;;;;;;;8.14;67.63;100433.65;636507;225;24890;-78
2021/03/09 11:12:09;;;;;;;18.80;11.53;;;;;;;8.17;66.84;100430.84;640829;221;24862;-77
2021/03/09 11:14:37;;;;;;;16.23;12.33;;;;;;;8.44;67.04;100433.42;646663;220;26980;-78
2021/03/09 11:17:09;;;;;;;16.20;11.50;;;;;;;8.51;66.48;100432.80;637442;221;24873;-78
2021/03/09 11:19:38;;;;;;;18.10;12.85;;;;;;;8.82;65.70;100420.70;628452;225;32751;-78
2021/03/09 11:22:06;;;;;;;17.60;12.40;;;;;;;8.80;64.00;100416.59;635475;225;23768;-77
2021/03/09 11:24:34;;;;;;;16.57;12.33;;;;;;;8.88;65.09;100421.98;636529;223;24994;-78
2021/03/09 11:27:02;;;;;;;17.67;12.10;;;;;;;8.63;66.05;100425.31;627856;225;24952;-77
2021/03/09 11:29:30;;;;;;;16.20;11.70;;;;;;;8.66;65.78;100422.94;645929;221;24934;-77